createdAt,value
2023-03-19T00:01:08.829Z,24.05
2023-03-19T00:03:37.493Z,25.08
2023-03-19T00:06:06.311Z,23.70
2023-03-19T00:08:34.677Z,24.23
2023-03-19T00:11:07.911Z,24.25
2023-03-19T00:13:36.636Z,22.75
2023-03-19T00:16:05.627Z,22.38
2023-03-19T00:18:34.210Z,22.00
2023-03-19T00:21:02.728Z,22.17
2023-03-19T00:23:32.071Z,21.77
2023-03-19T00:26:00.528Z,21.90
2023-03-19T00:28:28.734Z,22.52
2023-03-19T00:30:57.874Z,22.48
2023-03-19T00:33:29.494Z,21.98
2023-03-19T00:35:59.484Z,22.05
2023-03-19T00:38:28.027Z,21.40
2023-03-19T00:40:56.732Z,21.17
2023-03-19T00:43:25.773Z,21.55
2023-03-19T00:45:54.592Z,20.83
2023-03-19T00:48:22.813Z,21.20
2023-03-19T00:50:51.612Z,20.98
2023-03-19T00:53:19.747Z,20.58
2023-03-19T00:55:48.546Z,19.88
2023-03-19T00:58:17.788Z,21.35
2023-03-19T01:00:46.068Z,18.58
2023-03-19T01:03:16.031Z,20.20
2023-03-19T01:05:44.744Z,20.23
2023-03-19T01:08:13.617Z,20.75
2023-03-19T01:10:42.228Z,19.90
2023-03-19T01:13:11.221Z,19.45
2023-03-19T01:15:41.617Z,20.27
2023-03-19T01:18:12.018Z,20.10
2023-03-19T01:20:42.822Z,19.30
2023-03-19T01:23:11.457Z,20.58
2023-03-19T01:25:40.261Z,19.80
2023-03-19T01:28:09.129Z,19.17
2023-03-19T01:30:41.542Z,20.02
2023-03-19T01:33:28.955Z,19.30
2023-03-19T01:36:06.267Z,20.02
2023-03-19T01:38:41.666Z,19.63
2023-03-19T01:41:16.101Z,19.60
2023-03-19T01:43:45.101Z,20.02
2023-03-19T01:46:37.837Z,19.55
2023-03-19T01:49:28.670Z,19.27
2023-03-19T01:52:19.985Z,18.48
2023-03-19T01:55:06.745Z,18.75
2023-03-19T01:57:52.063Z,18.25
2023-03-19T02:00:36.744Z,18.30
2023-03-19T02:03:06.021Z,18.52
2023-03-19T02:05:52.552Z,17.60
2023-03-19T02:08:25.706Z,19.90
2023-03-19T02:10:56.786Z,18.92
2023-03-19T02:13:25.372Z,19.95
2023-03-19T02:15:54.651Z,19.08
2023-03-19T02:18:26.272Z,19.90
2023-03-19T02:21:18.602Z,21.35
2023-03-19T02:24:04.174Z,19.98
2023-03-19T02:26:50.927Z,19.85
2023-03-19T02:29:19.825Z,20.30
2023-03-19T02:31:49.271Z,21.42
2023-03-19T02:34:20.673Z,19.02
2023-03-19T02:37:14.401Z,18.25
2023-03-19T02:39:46.074Z,19.08
2023-03-19T02:42:16.591Z,19.83
2023-03-19T02:44:44.780Z,18.73
2023-03-19T02:47:12.780Z,20.13
2023-03-19T02:49:41.180Z,18.02
2023-03-19T02:52:10.166Z,18.58
2023-03-19T02:54:38.869Z,19.38
2023-03-19T02:57:07.495Z,19.45
2023-03-19T02:59:36.659Z,20.58
2023-03-19T03:02:05.186Z,19.80
2023-03-19T03:04:35.759Z,20.67
2023-03-19T03:07:05.576Z,19.98
2023-03-19T03:09:33.898Z,21.05
2023-03-19T03:12:02.551Z,19.23
2023-03-19T03:14:31.376Z,19.63
2023-03-19T03:17:00.023Z,19.08
2023-03-19T03:19:28.693Z,18.80
2023-03-19T03:21:56.994Z,18.60
2023-03-19T03:24:25.536Z,18.13
2023-03-19T03:26:54.034Z,18.17
2023-03-19T03:29:22.336Z,18.02
2023-03-19T03:31:50.707Z,18.73
2023-03-19T03:34:20.250Z,17.48
2023-03-19T03:36:48.767Z,18.33
2023-03-19T03:39:17.367Z,16.77
2023-03-19T03:41:46.165Z,17.15
2023-03-19T03:44:15.216Z,18.52
2023-03-19T03:46:43.807Z,20.55
2023-03-19T03:49:13.296Z,20.55
2023-03-19T03:51:42.264Z,18.67
2023-03-19T03:54:10.846Z,18.65
2023-03-19T03:56:39.525Z,17.83
2023-03-19T03:59:08.416Z,18.00
2023-03-19T04:01:37.342Z,18.48
2023-03-19T04:04:06.295Z,18.10
2023-03-19T04:06:35.766Z,16.92
2023-03-19T04:09:27.527Z,16.45
2023-03-19T04:11:56.097Z,16.65
2023-03-19T04:14:24.338Z,15.93
2023-03-19T04:16:52.585Z,15.85
2023-03-19T04:19:21.807Z,16.25
2023-03-19T04:21:50.388Z,16.77
2023-03-19T04:24:18.731Z,17.33
2023-03-19T04:26:48.851Z,16.92
2023-03-19T04:29:19.585Z,16.88
2023-03-19T04:31:48.136Z,17.50
2023-03-19T04:34:16.856Z,17.35
2023-03-19T04:36:45.049Z,18.92
2023-03-19T04:39:13.638Z,16.98
2023-03-19T04:41:41.951Z,19.23
2023-03-19T04:44:28.877Z,19.50
2023-03-19T04:46:57.917Z,19.73
2023-03-19T04:49:27.281Z,20.13
2023-03-19T04:51:58.649Z,19.27
2023-03-19T04:54:27.754Z,19.30
2023-03-19T04:56:56.869Z,19.42
2023-03-19T04:59:28.908Z,16.98
2023-03-19T05:01:57.305Z,17.50
2023-03-19T05:04:27.579Z,16.98
2023-03-19T05:07:02.489Z,17.60
2023-03-19T05:09:32.185Z,17.70
2023-03-19T05:12:00.736Z,18.48
2023-03-19T18:29:04.531Z,14.67
2023-03-19T18:31:32.851Z,15.30
2023-03-19T18:34:05.972Z,14.40
2023-03-19T18:36:35.665Z,14.75
2023-03-19T18:39:04.753Z,14.65
2023-03-19T18:41:33.350Z,14.13
2023-03-19T18:44:06.758Z,14.15
2023-03-19T18:46:37.131Z,14.45
2023-03-19T18:49:17.751Z,13.80
2023-03-19T18:52:01.028Z,13.65
2023-03-19T18:54:31.569Z,13.00
2023-03-19T18:57:03.432Z,13.80
2023-03-19T18:59:34.196Z,13.23
2023-03-19T19:02:15.595Z,13.40
2023-03-19T19:04:43.859Z,13.13
2023-03-19T19:07:15.270Z,13.63
2023-03-19T19:09:44.345Z,14.40
2023-03-19T19:12:18.660Z,13.20
2023-03-19T19:14:47.501Z,14.38
2023-03-19T19:17:24.705Z,14.57
2023-03-19T19:19:53.273Z,13.75
2023-03-19T19:22:21.621Z,13.75
2023-03-19T19:24:50.104Z,14.68
2023-03-19T19:27:22.596Z,14.38
2023-03-19T19:29:51.070Z,15.25
2023-03-19T19:32:25.127Z,15.73
2023-03-19T19:34:54.062Z,15.57
2023-03-19T19:37:24.066Z,14.88
2023-03-19T19:39:52.778Z,15.43
2023-03-19T19:42:23.197Z,16.38
2023-03-19T19:44:56.002Z,14.57
2023-03-19T19:47:24.180Z,15.88
2023-03-19T19:49:52.116Z,15.85
2023-03-19T19:52:20.909Z,17.42
2023-03-19T19:54:49.029Z,17.20
2023-03-19T19:57:21.648Z,18.27
2023-03-19T19:59:52.073Z,17.00
2023-03-19T20:02:38.179Z,19.15
2023-03-19T20:05:06.598Z,18.80
2023-03-19T20:07:34.993Z,19.88
2023-03-19T20:10:03.705Z,20.42
2023-03-19T20:12:33.584Z,21.35
2023-03-19T20:15:01.762Z,21.52
2023-03-19T20:17:30.152Z,20.65
2023-03-19T20:19:58.499Z,20.88
2023-03-19T20:22:26.777Z,20.27
2023-03-19T20:24:54.784Z,19.95
2023-03-19T20:27:29.265Z,20.40
2023-03-19T20:29:58.000Z,20.08
2023-03-19T20:32:25.894Z,21.98
2023-03-19T20:34:54.270Z,22.23
2023-03-19T20:37:22.742Z,20.38
2023-03-19T20:39:51.383Z,19.98
2023-03-19T20:42:20.877Z,21.50
2023-03-19T20:44:50.143Z,20.65
2023-03-19T20:47:21.672Z,21.33
2023-03-19T20:49:50.063Z,21.45
2023-03-19T20:52:18.304Z,19.38
2023-03-19T20:54:46.861Z,19.60
2023-03-19T20:57:18.941Z,20.27
2023-03-19T20:59:48.416Z,19.17
2023-03-19T21:02:20.378Z,21.45
2023-03-19T21:04:49.545Z,20.27
2023-03-19T21:07:35.473Z,20.85
2023-03-19T21:10:18.734Z,20.60
2023-03-19T21:12:47.545Z,19.55
2023-03-19T21:15:16.439Z,19.50
2023-03-19T21:17:44.678Z,20.73
2023-03-19T21:20:26.469Z,20.75
2023-03-19T21:22:56.812Z,21.65
2023-03-19T21:25:29.458Z,21.25
2023-03-19T21:28:06.127Z,20.35
2023-03-19T21:30:42.264Z,19.67
2023-03-19T21:33:25.795Z,20.85
2023-03-19T21:35:55.643Z,20.10
2023-03-19T21:38:24.459Z,19.35
2023-03-19T21:41:00.298Z,20.02
2023-03-19T21:43:44.857Z,18.80
2023-03-19T21:46:24.149Z,19.15
2023-03-19T21:48:57.880Z,19.58
2023-03-19T21:51:28.567Z,17.70
2023-03-19T21:53:57.193Z,18.27
2023-03-19T21:56:34.098Z,17.75
2023-03-19T21:59:06.967Z,18.10
2023-03-19T22:01:35.404Z,19.20
2023-03-19T22:04:03.807Z,19.48
2023-03-19T22:06:31.996Z,20.15
2023-03-19T22:09:00.449Z,18.63
2023-03-19T22:11:31.548Z,21.25
2023-03-19T22:14:06.667Z,21.40
2023-03-19T22:16:34.947Z,22.33
2023-03-19T22:19:03.230Z,20.20
2023-03-19T22:21:33.089Z,21.42
2023-03-19T22:24:01.381Z,21.85
2023-03-19T22:26:38.716Z,20.65
2023-03-19T22:29:27.303Z,20.55
2023-03-19T22:31:57.260Z,20.73
2023-03-19T22:34:30.580Z,22.27
2023-03-19T22:36:59.726Z,21.92
2023-03-19T22:39:28.106Z,22.27
2023-03-19T22:41:56.358Z,21.85
2023-03-19T22:44:29.457Z,21.38
2023-03-19T22:47:01.953Z,21.30
2023-03-19T22:49:30.574Z,22.23
2023-03-19T22:51:58.918Z,20.77
2023-03-19T22:54:27.330Z,22.88
2023-03-19T22:56:55.616Z,22.98
2023-03-19T22:59:23.915Z,23.48
2023-03-19T23:01:52.383Z,23.65
2023-03-19T23:04:25.673Z,23.52
2023-03-19T23:06:56.433Z,23.27
2023-03-19T23:09:30.665Z,24.27
2023-03-19T23:12:00.391Z,22.98
2023-03-19T23:14:31.154Z,23.42
2023-03-19T23:17:08.105Z,24.38
2023-03-19T23:19:38.844Z,23.88
2023-03-19T23:22:14.685Z,23.88
2023-03-19T23:24:45.359Z,24.20
2023-03-19T23:27:26.961Z,24.50
2023-03-19T23:29:55.599Z,23.73
2023-03-19T23:32:23.962Z,24.85
2023-03-19T23:35:01.607Z,24.08
2023-03-19T23:37:31.470Z,25.00
2023-03-19T23:40:00.048Z,24.67
2023-03-19T23:42:30.788Z,24.83
2023-03-19T23:45:02.836Z,25.30
2023-03-19T23:47:31.398Z,24.33
2023-03-19T23:49:59.993Z,24.58
2023-03-19T23:52:28.635Z,23.77
2023-03-19T23:54:58.154Z,23.42
2023-03-19T23:57:27.724Z,24.85
2023-03-19T23:59:56.924Z,24.13
